Time;durP1;ratioP1;P1;durP2;ratioP2;P2;SDS_P1;SDS_P2;PMS_P1;PMS_P2;Temp;Humidity;BMP_temperature;BMP_pressure;BME280_temperature;BME280_humidity;BME280_pressure;Samples;Min_cycle;Max_cycle;Signal;HPM_P1;HPM_P2
2022/11/13 00:01:17;;;;;;;15.60;9.20;;;8.40;99.90;;;;;;5075826;28;20507;-67
2022/11/13 00:03:44;;;;;;;13.27;7.85;;;8.30;99.90;;;;;;5076090;28;20059;-67
2022/11/13 00:06:12;;;;;;;9.63;6.78;;;8.00;99.90;;;;;;5075105;28;20082;-67
2022/11/13 00:08:39;;;;;;;13.65;8.07;;;7.90;99.90;;;;;;5073949;28;20040;-67
2022/11/13 00:11:17;;;;;;;13.55;8.20;;;7.90;99.90;;;;;;5075190;28;20040;-67
2022/11/13 00:13:44;;;;;;;14.88;7.38;;;7.90;99.90;;;;;;5074621;28;20830;-67
2022/11/13 00:16:13;;;;;;;10.00;5.72;;;8.10;99.90;;;;;;5076728;28;20050;-67
2022/11/13 00:18:40;;;;;;;8.68;4.82;;;8.30;99.90;;;;;;5076688;28;20033;-67
2022/11/13 00:21:07;;;;;;;9.32;5.38;;;8.40;99.90;;;;;;5075142;28;20504;-67
2022/11/13 00:23:35;;;;;;;10.15;6.10;;;8.50;99.90;;;;;;5075436;28;20040;-67
2022/11/13 00:26:10;;;;;;;7.82;4.57;;;8.40;99.90;;;;;;5075140;28;20044;-67
2022/11/13 00:28:37;;;;;;;7.97;4.63;;;8.40;99.90;;;;;;5075525;28;20124;-67
2022/11/13 00:31:05;;;;;;;7.32;4.60;;;8.50;99.90;;;;;;5075214;28;20040;-67
2022/11/13 00:33:32;;;;;;;6.43;3.63;;;8.70;99.90;;;;;;5075269;28;20040;-67
2022/11/13 00:36:06;;;;;;;5.18;3.25;;;8.80;99.90;;;;;;5075147;28;20072;-67
2022/11/13 00:38:34;;;;;;;4.55;3.10;;;9.00;99.90;;;;;;5074912;28;20123;-67
2022/11/13 00:41:00;;;;;;;10.05;5.68;;;9.00;99.90;;;;;;5056873;28;20520;-67
2022/11/13 00:43:28;;;;;;;13.05;6.35;;;8.80;99.90;;;;;;5075233;28;20488;-67
2022/11/13 00:45:55;;;;;;;13.30;7.88;;;8.80;99.90;;;;;;5075021;28;20044;-67
2022/11/13 00:48:22;;;;;;;15.00;8.68;;;8.70;99.90;;;;;;5076884;28;20080;-67
2022/11/13 00:50:49;;;;;;;21.27;10.98;;;8.60;99.90;;;;;;5075172;28;20044;-67
2022/11/13 00:53:16;;;;;;;19.52;9.10;;;8.60;99.90;;;;;;5074701;28;20045;-67
2022/11/13 00:55:44;;;;;;;16.23;8.80;;;8.70;99.90;;;;;;5073448;28;20579;-67
2022/11/13 00:58:13;;;;;;;14.70;7.13;;;8.70;99.90;;;;;;5074530;28;20558;-67
2022/11/13 01:00:43;;;;;;;9.15;5.65;;;8.70;99.90;;;;;;5073365;28;20492;-67
2022/11/13 01:03:10;;;;;;;8.63;4.60;;;8.60;99.90;;;;;;5074612;28;20147;-67
2022/11/13 01:05:39;;;;;;;7.00;4.22;;;8.60;99.90;;;;;;5074790;28;20113;-67
2022/11/13 01:08:11;;;;;;;6.15;3.78;;;8.70;99.90;;;;;;5074351;28;20064;-67
2022/11/13 01:10:44;;;;;;;6.28;4.10;;;8.70;99.90;;;;;;5074558;28;20071;-67
2022/11/13 01:13:11;;;;;;;19.90;8.38;;;8.80;99.90;;;;;;5074149;28;20067;-67
2022/11/13 01:15:45;;;;;;;10.00;6.70;;;8.70;99.90;;;;;;5074505;28;20036;-67
2022/11/13 01:18:12;;;;;;;14.07;7.03;;;8.60;99.90;;;;;;5074192;28;20044;-67
2022/11/13 01:20:39;;;;;;;13.05;7.40;;;8.70;99.90;;;;;;5074529;28;20060;-67
2022/11/13 01:23:06;;;;;;;13.32;7.82;;;8.60;99.90;;;;;;5075573;28;20041;-67
2022/11/13 01:25:33;;;;;;;12.68;6.05;;;8.70;99.90;;;;;;5074480;28;20048;-67
2022/11/13 01:28:02;;;;;;;10.80;5.72;;;8.80;99.90;;;;;;5074127;28;20036;-67
2022/11/13 01:30:28;;;;;;;8.70;4.55;;;8.80;99.90;;;;;;5074406;28;20048;-67
2022/11/13 01:32:55;;;;;;;7.38;4.78;;;8.90;99.90;;;;;;5074055;28;20056;-67
2022/11/13 01:35:21;;;;;;;10.40;5.75;;;9.00;99.90;;;;;;5074417;28;20040;-67
2022/11/13 01:37:48;;;;;;;7.38;4.72;;;8.80;99.90;;;;;;5074084;28;20098;-67
2022/11/13 01:40:14;;;;;;;12.18;7.10;;;8.60;99.90;;;;;;5073707;28;20088;-67
2022/11/13 01:42:41;;;;;;;9.65;5.47;;;8.60;99.90;;;;;;5073533;28;20127;-67
2022/11/13 01:45:44;;;;;;;15.98;7.38;;;8.60;99.90;;;;;;5074565;28;20044;-67
2022/11/13 01:48:12;;;;;;;10.30;5.82;;;8.60;99.90;;;;;;5074054;28;20111;-67
2022/11/13 01:50:39;;;;;;;10.20;5.97;;;8.50;99.90;;;;;;5073755;28;20042;-67
2022/11/13 01:53:06;;;;;;;10.85;6.32;;;8.60;99.90;;;;;;5073722;28;20051;-67
2022/11/13 01:55:33;;;;;;;11.10;6.72;;;8.40;99.90;;;;;;5074739;28;20078;-67
2022/11/13 01:58:00;;;;;;;11.18;7.07;;;8.50;99.90;;;;;;5074434;28;20068;-67
2022/11/13 02:00:27;;;;;;;15.32;7.13;;;8.40;99.90;;;;;;5073692;28;20561;-67
2022/11/13 02:02:53;;;;;;;10.90;6.60;;;8.20;99.90;;;;;;5073884;28;20040;-67
2022/11/13 02:05:20;;;;;;;8.32;5.50;;;8.10;99.90;;;;;;5073880;28;20040;-67
2022/11/13 02:07:46;;;;;;;11.60;4.95;;;8.00;99.90;;;;;;5073558;28;20048;-67
2022/11/13 02:10:13;;;;;;;6.65;4.45;;;8.00;99.90;;;;;;5073057;28;20040;-67
2022/11/13 02:12:44;;;;;;;6.28;4.00;;;7.90;99.90;;;;;;5071422;28;20431;-67
2022/11/13 02:15:11;;;;;;;5.15;2.83;;;8.10;99.90;;;;;;5073029;28;20040;-67
2022/11/13 02:17:57;;;;;;;5.43;2.90;;;8.30;99.90;;;;;;5073148;28;20233;-67
2022/11/13 02:20:50;;;;;;;6.53;2.90;;;8.30;99.90;;;;;;5073406;28;20091;-67
2022/11/13 02:23:47;;;;;;;5.60;3.53;;;8.40;99.90;;;;;;5074136;28;20033;-67
2022/11/13 02:26:14;;;;;;;5.20;2.72;;;8.40;99.90;;;;;;5072256;28;20462;-67
2022/11/13 02:28:41;;;;;;;3.60;2.80;;;8.50;99.90;;;;;;5073151;28;20121;-67
2022/11/13 02:31:12;;;;;;;4.35;2.67;;;8.60;99.90;;;;;;5073690;28;20411;-67
2022/11/13 02:33:39;;;;;;;5.22;2.53;;;8.70;99.90;;;;;;5073791;28;20047;-67
2022/11/13 02:36:08;;;;;;;3.88;2.80;;;8.80;99.90;;;;;;5072653;28;20044;-67
2022/11/13 02:38:40;;;;;;;4.55;2.45;;;8.80;99.90;;;;;;5071811;28;20102;-67
2022/11/13 02:41:06;;;;;;;4.40;2.45;;;8.60;99.90;;;;;;5072712;28;20102;-67
2022/11/13 02:43:33;;;;;;;4.28;2.70;;;8.60;99.90;;;;;;5072882;28;20048;-67
2022/11/13 02:45:59;;;;;;;4.32;2.75;;;8.40;99.90;;;;;;5073702;28;20066;-67
2022/11/13 02:48:26;;;;;;;4.43;2.78;;;8.40;99.90;;;;;;5072999;28;20484;-67
2022/11/13 02:50:53;;;;;;;6.72;3.60;;;8.40;99.90;;;;;;5071871;28;20106;-67
2022/11/13 02:53:19;;;;;;;7.95;4.32;;;8.40;99.90;;;;;;5072639;28;20127;-67
2022/11/13 02:55:45;;;;;;;13.90;6.20;;;8.30;99.90;;;;;;5072509;28;20086;-67
2022/11/13 02:58:11;;;;;;;6.45;3.97;;;8.20;99.90;;;;;;5072116;28;20119;-67
2022/11/13 03:00:38;;;;;;;6.53;4.30;;;8.00;99.90;;;;;;5073390;28;20136;-67
2022/11/13 03:03:04;;;;;;;6.90;4.10;;;8.00;99.90;;;;;;5074128;28;20071;-67
2022/11/13 03:05:31;;;;;;;9.13;4.85;;;8.00;99.90;;;;;;5072276;28;20040;-67
2022/11/13 03:07:57;;;;;;;10.52;5.07;;;7.90;99.90;;;;;;5072105;28;20044;-67
2022/11/13 03:10:23;;;;;;;12.35;6.93;;;7.80;99.90;;;;;;5073135;28;20500;-67
2022/11/13 03:12:50;;;;;;;12.15;7.10;;;7.80;99.90;;;;;;5073388;28;20052;-66
2022/11/13 03:15:16;;;;;;;12.57;6.60;;;7.70;99.90;;;;;;5072113;28;20071;-67
2022/11/13 03:17:45;;;;;;;50.38;8.60;;;7.70;99.90;;;;;;5072380;28;20572;-67
2022/11/13 03:20:12;;;;;;;20.02;5.60;;;7.60;99.90;;;;;;5072001;28;20055;-67
2022/11/13 03:22:39;;;;;;;9.02;6.45;;;7.60;99.90;;;;;;5054191;28;20044;-67
2022/11/13 03:25:06;;;;;;;11.35;7.07;;;7.60;99.90;;;;;;5071113;28;20040;-67
2022/11/13 03:27:32;;;;;;;10.20;6.35;;;7.60;99.90;;;;;;5072130;28;20041;-67
2022/11/13 03:30:00;;;;;;;8.70;5.75;;;7.70;99.90;;;;;;5073328;28;20043;-67
2022/11/13 03:32:26;;;;;;;7.47;4.45;;;7.60;99.90;;;;;;5072443;28;20032;-67
2022/11/13 03:34:52;;;;;;;7.78;3.83;;;7.50;99.90;;;;;;5072488;28;20456;-67
2022/11/13 03:37:19;;;;;;;4.70;3.17;;;7.40;99.90;;;;;;5072374;28;20036;-67
2022/11/13 03:39:45;;;;;;;6.60;2.70;;;7.40;99.90;;;;;;5071621;28;20058;-67
2022/11/13 03:42:12;;;;;;;6.53;3.95;;;7.40;99.90;;;;;;5072011;28;20395;-67
2022/11/13 03:44:38;;;;;;;7.35;4.95;;;7.40;99.90;;;;;;5072047;28;20051;-67
2022/11/13 03:47:07;;;;;;;8.50;5.43;;;7.60;99.90;;;;;;5071665;28;20032;-67
2022/11/13 03:49:33;;;;;;;10.32;5.75;;;7.60;99.90;;;;;;5070721;28;20043;-67
2022/11/13 03:51:59;;;;;;;9.63;6.15;;;7.40;99.90;;;;;;5071883;28;20523;-67
2022/11/13 03:54:26;;;;;;;9.25;5.78;;;7.50;99.90;;;;;;5071995;28;20123;-67
2022/11/13 03:56:54;;;;;;;16.25;6.38;;;7.40;99.90;;;;;;5073053;28;20090;-67
2022/11/13 03:59:21;;;;;;;11.40;5.43;;;7.30;99.90;;;;;;5072354;28;20036;-67
2022/11/13 04:01:47;;;;;;;12.95;6.10;;;7.20;99.90;;;;;;5070410;28;20040;-67
2022/11/13 04:04:14;;;;;;;26.30;6.55;;;7.20;99.90;;;;;;5071773;28;20128;-67
2022/11/13 04:06:41;;;;;;;7.55;5.20;;;7.20;99.90;;;;;;5071787;28;20036;-67
2022/11/13 04:09:07;;;;;;;74.38;5.13;;;7.20;99.90;;;;;;5071623;28;20638;-67
2022/11/13 04:11:34;;;;;;;38.85;5.28;;;7.20;99.90;;;;;;5071522;28;20105;-67
2022/11/13 04:14:02;;;;;;;14.88;5.65;;;7.20;99.90;;;;;;5071634;28;20044;-67
2022/11/13 04:16:28;;;;;;;11.73;6.75;;;7.30;99.90;;;;;;5070262;28;20072;-67
2022/11/13 04:18:55;;;;;;;15.27;6.40;;;7.30;99.90;;;;;;5070909;28;20048;-67
2022/11/13 04:21:22;;;;;;;43.80;4.55;;;7.30;99.90;;;;;;5071792;28;20055;-67
2022/11/13 04:23:48;;;;;;;17.40;3.60;;;7.30;99.90;;;;;;5072072;28;20075;-67
2022/11/13 04:26:14;;;;;;;24.70;3.90;;;7.20;99.90;;;;;;5072314;28;20044;-67
2022/11/13 04:28:41;;;;;;;36.67;2.90;;;7.10;99.90;;;;;;5071669;28;20523;-67
2022/11/13 04:31:07;;;;;;;11.73;3.47;;;7.10;99.90;;;;;;5072437;28;20048;-67
2022/11/13 04:33:34;;;;;;;5.28;3.30;;;7.10;99.90;;;;;;5071618;28;20595;-67
2022/11/13 04:36:02;;;;;;;6.45;4.28;;;7.10;99.90;;;;;;5074435;28;20081;-67
2022/11/13 04:38:29;;;;;;;4.45;3.10;;;7.10;99.90;;;;;;5075610;28;20514;-67
2022/11/13 04:43:40;;;;;;;6.50;2.88;;;6.40;99.90;;;;;;5074934;28;20099;-67
2022/11/13 04:46:07;;;;;;;3.70;2.70;;;6.10;99.90;;;;;;5074798;28;20138;-67
2022/11/13 04:48:34;;;;;;;3.60;2.72;;;6.00;99.90;;;;;;5075042;28;20126;-67
2022/11/13 04:51:00;;;;;;;4.32;3.35;;;5.90;99.90;;;;;;5074720;28;20174;-67
2022/11/13 04:53:27;;;;;;;3.25;2.83;;;6.00;99.90;;;;;;5073697;28;20570;-67
2022/11/13 04:55:54;;;;;;;6.75;3.92;;;6.10;99.90;;;;;;5073545;28;20511;-67
2022/11/13 04:58:20;;;;;;;4.93;3.67;;;6.30;99.90;;;;;;5075020;28;20043;-67
2022/11/13 05:00:47;;;;;;;5.80;4.10;;;6.40;99.90;;;;;;5073489;28;20427;-67
2022/11/13 05:03:13;;;;;;;6.70;4.03;;;6.60;99.90;;;;;;5074701;28;20094;-67
2022/11/13 05:05:41;;;;;;;4.07;3.17;;;6.60;99.90;;;;;;5074854;28;20048;-67
2022/11/13 05:08:09;;;;;;;5.07;3.47;;;6.50;99.90;;;;;;5074583;28;20049;-67
2022/11/13 05:10:36;;;;;;;5.57;3.70;;;6.30;99.90;;;;;;5074953;28;20138;-67
2022/11/13 05:13:02;;;;;;;4.88;3.05;;;6.30;99.90;;;;;;5076409;28;20047;-67
2022/11/13 05:15:28;;;;;;;4.15;3.00;;;6.30;99.90;;;;;;5076420;28;20048;-67
2022/11/13 05:17:55;;;;;;;4.65;3.13;;;6.40;99.90;;;;;;5076417;28;20082;-67
2022/11/13 05:20:23;;;;;;;26.65;3.22;;;6.50;99.90;;;;;;5076213;28;20492;-67
2022/11/13 05:22:49;;;;;;;27.08;3.33;;;6.50;99.90;;;;;;5074506;28;20483;-67
2022/11/13 05:25:16;;;;;;;6.45;4.03;;;6.40;99.90;;;;;;5073851;28;20514;-67
2022/11/13 05:27:42;;;;;;;14.07;4.95;;;6.30;99.90;;;;;;5074444;28;20032;-67
2022/11/13 05:30:09;;;;;;;8.50;4.97;;;6.40;99.90;;;;;;5075339;28;20051;-67
2022/11/13 05:32:40;;;;;;;6.88;4.47;;;6.40;99.90;;;;;;5072023;28;20111;-67
2022/11/13 05:35:07;;;;;;;5.85;3.75;;;6.30;99.90;;;;;;5073482;28;20578;-67
2022/11/13 05:37:34;;;;;;;5.78;3.80;;;6.40;99.90;;;;;;5074132;28;20120;-67
2022/11/13 05:40:02;;;;;;;6.55;4.20;;;6.40;99.90;;;;;;5073514;28;20507;-67
2022/11/13 05:42:28;;;;;;;11.20;3.83;;;6.30;99.90;;;;;;5074103;28;20166;-67
2022/11/13 05:44:55;;;;;;;13.95;3.05;;;6.20;99.90;;;;;;5073807;28;20633;-67
2022/11/13 05:47:23;;;;;;;4.80;3.40;;;6.20;99.90;;;;;;5073609;28;20075;-67
2022/11/13 05:49:50;;;;;;;3.00;2.22;;;6.10;99.90;;;;;;5074081;28;20041;-67
2022/11/13 05:52:17;;;;;;;2.88;2.10;;;6.20;99.90;;;;;;5072851;28;20045;-67
2022/11/13 05:54:43;;;;;;;3.53;2.40;;;6.30;99.90;;;;;;5073941;28;20040;-67
2022/11/13 05:57:10;;;;;;;5.43;3.20;;;6.20;99.90;;;;;;5073698;28;20043;-67
2022/11/13 05:59:38;;;;;;;3.35;2.45;;;6.00;99.90;;;;;;5056417;28;20060;-67
2022/11/13 06:02:05;;;;;;;4.68;3.00;;;6.00;99.90;;;;;;5071866;28;20106;-67
2022/11/13 06:04:33;;;;;;;6.30;2.90;;;5.80;99.90;;;;;;5075256;28;20037;-67
2022/11/13 06:07:00;;;;;;;7.38;3.03;;;5.70;99.90;;;;;;5075343;28;20075;-67
2022/11/13 06:09:29;;;;;;;8.70;2.35;;;5.60;99.90;;;;;;5075297;28;20082;-67
2022/11/13 06:11:55;;;;;;;4.00;2.97;;;5.60;99.90;;;;;;5073943;28;20048;-67
2022/11/13 06:14:23;;;;;;;5.95;3.00;;;5.50;99.90;;;;;;5071654;28;20514;-67
2022/11/13 06:16:51;;;;;;;3.20;2.47;;;5.50;99.90;;;;;;5073599;28;20127;-67
2022/11/13 06:19:19;;;;;;;4.30;2.50;;;5.30;99.90;;;;;;5073148;28;20434;-66
2022/11/13 06:21:46;;;;;;;10.43;2.60;;;5.30;99.90;;;;;;5072980;28;20036;-66
2022/11/13 06:24:14;;;;;;;9.02;2.15;;;5.20;99.90;;;;;;5073201;28;20437;-66
2022/11/13 06:26:43;;;;;;;15.00;2.95;;;5.20;99.90;;;;;;5073158;28;20052;-67
2022/11/13 06:29:11;;;;;;;9.07;2.40;;;5.20;99.90;;;;;;5072461;28;20060;-66
2022/11/13 06:31:39;;;;;;;2.65;2.03;;;5.20;99.90;;;;;;5072448;28;20070;-67
2022/11/13 06:34:06;;;;;;;6.03;2.38;;;5.40;99.90;;;;;;5072329;28;20039;-67
2022/11/13 06:36:36;;;;;;;2.97;2.10;;;5.50;99.90;;;;;;5072867;28;20044;-66
2022/11/13 06:39:09;;;;;;;3.22;2.10;;;5.60;99.90;;;;;;5072407;28;20040;-66
2022/11/13 06:41:38;;;;;;;3.05;2.35;;;5.60;99.90;;;;;;5055003;28;20131;-66
2022/11/13 06:44:04;;;;;;;3.30;2.45;;;5.30;99.90;;;;;;5072424;28;20044;-66
2022/11/13 06:46:31;;;;;;;2.75;2.15;;;5.20;99.90;;;;;;5072577;28;20101;-66
2022/11/13 06:48:58;;;;;;;2.92;2.25;;;5.20;99.90;;;;;;5071154;28;20051;-66
2022/11/13 06:51:27;;;;;;;2.50;1.88;;;5.10;99.90;;;;;;5072459;28;20385;-67
2022/11/13 06:53:55;;;;;;;2.33;1.90;;;5.20;99.90;;;;;;5070964;28;20058;-67
2022/11/13 06:56:23;;;;;;;4.65;2.25;;;5.40;99.90;;;;;;5072867;28;20050;-67
2022/11/13 06:58:51;;;;;;;9.07;2.30;;;5.40;99.90;;;;;;5072604;28;20480;-67
2022/11/13 07:01:21;;;;;;;6.82;2.67;;;5.50;99.90;;;;;;5072265;28;20084;-67
2022/11/13 07:03:48;;;;;;;8.30;3.10;;;5.60;99.90;;;;;;5070948;28;20047;-66
2022/11/13 07:06:22;;;;;;;10.38;3.05;;;5.60;99.90;;;;;;5071723;28;20040;-67
2022/11/13 07:08:49;;;;;;;12.57;3.10;;;5.70;99.90;;;;;;5071359;28;20036;-67
2022/11/13 07:11:20;;;;;;;4.10;3.30;;;5.70;99.90;;;;;;5073564;28;20048;-67
2022/11/13 07:13:47;;;;;;;4.00;2.88;;;5.80;99.90;;;;;;5072497;28;20055;-68
2022/11/13 07:16:15;;;;;;;5.53;3.63;;;5.70;99.90;;;;;;5072107;28;20075;-67
2022/11/13 07:18:44;;;;;;;3.92;2.75;;;5.70;99.90;;;;;;5072276;28;20093;-68
2022/11/13 07:21:13;;;;;;;3.50;2.80;;;5.50;99.90;;;;;;5072042;28;20044;-67
2022/11/13 07:23:42;;;;;;;2.85;2.17;;;5.40;99.90;;;;;;5074135;28;20049;-68
2022/11/13 07:26:12;;;;;;;2.50;2.00;;;5.30;99.90;;;;;;5070557;28;20040;-68
2022/11/13 07:28:39;;;;;;;1.83;1.45;;;5.10;99.90;;;;;;5072134;28;20456;-68
2022/11/13 07:31:06;;;;;;;2.28;1.65;;;5.10;99.90;;;;;;5071777;28;20068;-68
2022/11/13 07:33:33;;;;;;;2.40;1.90;;;5.10;99.90;;;;;;5072091;28;20044;-68
2022/11/13 07:36:00;;;;;;;5.28;3.55;;;5.10;99.90;;;;;;5071071;28;20037;-68
2022/11/13 07:38:27;;;;;;;8.35;5.63;;;5.20;99.90;;;;;;5071912;28;20040;-68
2022/11/13 07:40:56;;;;;;;8.90;4.13;;;5.30;99.90;;;;;;5071933;28;20055;-68
2022/11/13 07:43:24;;;;;;;4.05;2.92;;;5.20;99.90;;;;;;5072385;28;20174;-68
2022/11/13 07:45:55;;;;;;;4.55;3.10;;;5.10;99.90;;;;;;5072432;28;20048;-68
2022/11/13 07:48:23;;;;;;;8.23;4.78;;;5.20;99.90;;;;;;5069775;28;20033;-68
2022/11/13 07:50:50;;;;;;;9.43;5.93;;;5.00;99.90;;;;;;5072826;28;20036;-70
2022/11/13 07:53:21;;;;;;;12.90;7.60;;;5.10;99.90;;;;;;5070229;28;20047;-69
2022/11/13 07:55:47;;;;;;;13.35;7.97;;;5.10;99.90;;;;;;5071566;28;20044;-72
2022/11/13 07:58:15;;;;;;;11.50;5.30;;;5.20;99.90;;;;;;5071528;28;20055;-68
2022/11/13 08:00:41;;;;;;;9.77;5.13;;;5.20;99.90;;;;;;5070532;28;20056;-66
2022/11/13 08:03:16;;;;;;;7.57;4.53;;;5.20;99.90;;;;;;5072860;28;20504;-67
2022/11/13 08:05:43;;;;;;;6.25;3.72;;;5.30;99.90;;;;;;5073394;28;20136;-69
2022/11/13 08:08:14;;;;;;;5.85;3.78;;;5.30;99.90;;;;;;5071066;28;20510;-68
2022/11/13 08:10:40;;;;;;;;;;;5.40;99.90;;;;;;5073529;28;20040;-66
2022/11/13 08:13:08;;;;;;;3.78;2.80;;;5.60;99.90;;;;;;5075043;28;19916;-69
2022/11/13 08:15:35;;;;;;;4.28;3.00;;;5.70;99.90;;;;;;5075636;28;20040;-67
2022/11/13 08:18:04;;;;;;;4.78;3.05;;;5.60;99.90;;;;;;5075125;28;20070;-68
2022/11/13 08:20:32;;;;;;;2.92;2.17;;;5.50;99.90;;;;;;5075219;28;20044;-68
2022/11/13 08:23:01;;;;;;;4.05;2.67;;;5.50;99.90;;;;;;5074981;28;20131;-70
2022/11/13 08:25:30;;;;;;;2.33;2.03;;;5.40;99.90;;;;;;5075557;28;20041;-69
2022/11/13 08:28:01;;;;;;;5.90;2.50;;;5.40;99.90;;;;;;5075101;28;20135;-71
2022/11/13 08:30:31;;;;;;;4.15;2.53;;;5.30;99.90;;;;;;5074351;28;20044;-68
2022/11/13 08:32:59;;;;;;;3.05;2.05;;;5.30;99.90;;;;;;5075081;28;20578;-67
2022/11/13 08:35:25;;;;;;;5.22;2.53;;;5.30;99.90;;;;;;5074049;28;20049;-62
2022/11/13 08:38:07;;;;;;;5.72;2.67;;;5.30;99.90;;;;;;5073968;28;20040;-65
2022/11/13 08:40:35;;;;;;;3.67;2.90;;;5.30;99.90;;;;;;5075160;28;20055;-64
2022/11/13 08:43:03;;;;;;;5.20;2.83;;;5.40;99.90;;;;;;5073436;28;20041;-68
2022/11/13 08:45:30;;;;;;;4.95;3.20;;;5.50;99.90;;;;;;5075146;28;20523;-70
2022/11/13 08:48:01;;;;;;;4.70;3.00;;;5.50;99.90;;;;;;5075591;28;20572;-68
2022/11/13 08:50:28;;;;;;;4.43;3.10;;;5.60;99.90;;;;;;5076997;28;20404;-71
2022/11/13 08:52:57;;;;;;;6.05;3.10;;;5.80;99.90;;;;;;5075549;28;20032;-69
2022/11/13 08:55:25;;;;;;;3.55;2.80;;;5.90;99.90;;;;;;5075071;28;20051;-66
2022/11/13 08:57:52;;;;;;;4.72;3.00;;;6.00;99.90;;;;;;5073819;28;20040;-66
2022/11/13 09:00:19;;;;;;;3.60;2.80;;;6.10;99.90;;;;;;5074413;28;20053;-66
2022/11/13 09:02:47;;;;;;;3.83;2.85;;;6.10;99.90;;;;;;5074483;28;20044;-64
2022/11/13 09:05:14;;;;;;;3.88;2.63;;;6.20;99.90;;;;;;5072863;28;20047;-68
2022/11/13 09:07:42;;;;;;;4.35;2.80;;;6.30;99.90;;;;;;5073144;28;20155;-67
2022/11/13 09:10:08;;;;;;;3.70;2.83;;;6.50;99.90;;;;;;5075971;28;20054;-68
2022/11/13 09:12:35;;;;;;;27.17;15.38;;;6.70;99.90;;;;;;5073599;28;20094;-67
2022/11/13 09:15:02;;;;;;;29.08;20.13;;;7.00;99.90;;;;;;5073971;28;20048;-66
2022/11/13 09:17:31;;;;;;;8.57;6.38;;;7.10;99.90;;;;;;5074422;28;20032;-65
2022/11/13 09:19:57;;;;;;;11.27;6.75;;;7.10;99.90;;;;;;5073614;28;20525;-65
2022/11/13 09:22:23;;;;;;;11.65;6.03;;;7.10;99.90;;;;;;5073292;28;20044;-65
2022/11/13 09:24:50;;;;;;;23.95;13.68;;;7.10;99.90;;;;;;5074125;28;20072;-64
2022/11/13 09:27:17;;;;;;;33.42;17.38;;;7.20;99.90;;;;;;5073399;28;20047;-64
2022/11/13 09:29:43;;;;;;;43.00;23.58;;;7.20;99.90;;;;;;5074250;28;20559;-64
2022/11/13 09:32:10;;;;;;;38.28;20.40;;;7.30;99.90;;;;;;5073942;28;20238;-64
2022/11/13 09:34:36;;;;;;;29.38;6.55;;;7.40;99.90;;;;;;5074368;28;20044;-66
2022/11/13 09:37:03;;;;;;;10.93;5.40;;;7.40;99.90;;;;;;5074188;28;20036;-66
2022/11/13 09:39:29;;;;;;;10.23;6.28;;;7.40;99.90;;;;;;5072639;28;20056;-63
2022/11/13 09:42:18;;;;;;;29.08;15.45;;;7.50;99.90;;;;;;5072596;28;20442;-65
2022/11/13 09:45:09;;;;;;;10.13;6.55;;;7.70;99.90;;;;;;5070689;28;20051;-65
2022/11/13 09:47:41;;;;;;;22.95;13.70;;;7.80;99.90;;;;;;5070611;28;20079;-66
2022/11/13 09:50:21;;;;;;;33.08;18.88;;;7.80;99.90;;;;;;5072116;28;20392;-66
2022/11/13 09:52:50;;;;;;;25.90;16.47;;;7.80;99.90;;;;;;5072306;28;20044;-64
2022/11/13 09:55:23;;;;;;;17.15;9.48;;;7.80;99.90;;;;;;5073864;28;20321;-64
2022/11/13 09:58:05;;;;;;;18.27;11.45;;;7.80;99.90;;;;;;5074019;28;20051;-64
2022/11/13 10:00:33;;;;;;;12.90;8.18;;;7.80;99.90;;;;;;5073391;28;20048;-64
2022/11/13 10:03:35;;;;;;;6.45;4.82;;;7.90;99.90;;;;;;5073418;28;20139;-63
2022/11/13 10:06:26;;;;;;;4.97;3.28;;;7.90;99.90;;;;;;5073543;28;20036;-63
2022/11/13 10:09:19;;;;;;;3.80;3.08;;;7.70;99.90;;;;;;5073628;28;20059;-73
2022/11/13 10:12:06;;;;;;;7.47;4.82;;;7.60;99.90;;;;;;5071209;28;20047;-72
2022/11/13 10:14:42;;;;;;;9.93;6.55;;;7.80;99.90;;;;;;5073370;28;20040;-72
2022/11/13 10:17:40;;;;;;;31.10;5.72;;;7.70;99.90;;;;;;5074678;28;20040;-72
2022/11/13 10:20:25;;;;;;;16.23;6.97;;;7.70;99.90;;;;;;5019509;28;20048;-73
2022/11/13 10:23:00;;;;;;;39.53;4.47;;;7.70;99.90;;;;;;5071622;28;20094;-72
2022/11/13 10:25:32;;;;;;;23.45;6.03;;;7.70;99.90;;;;;;5072277;28;20391;-70
2022/11/13 10:28:10;;;;;;;17.05;6.70;;;7.70;99.90;;;;;;5071712;28;20036;-71
2022/11/13 10:30:41;;;;;;;7.90;5.85;;;7.70;99.90;;;;;;5071041;28;20040;-71
2022/11/13 10:33:14;;;;;;;46.55;6.25;;;7.80;99.90;;;;;;5072126;28;20047;-74
2022/11/13 10:36:19;;;;;;;19.95;6.50;;;7.90;99.90;;;;;;5071836;28;20040;-75
2022/11/13 10:38:53;;;;;;;9.60;6.82;;;8.10;99.90;;;;;;5018057;28;20494;-74
2022/11/13 10:41:21;;;;;;;9.05;6.55;;;8.30;99.90;;;;;;5072439;28;20052;-74
2022/11/13 10:43:54;;;;;;;10.45;6.90;;;8.40;99.90;;;;;;5071588;28;20047;-74
2022/11/13 10:46:31;;;;;;;10.00;7.30;;;8.50;99.90;;;;;;5072480;28;20129;-73
2022/11/13 10:49:09;;;;;;;11.75;8.23;;;8.60;99.90;;;;;;5071030;28;20492;-72
2022/11/13 10:51:38;;;;;;;11.65;7.38;;;8.60;99.90;;;;;;5073022;28;20052;-72
2022/11/13 10:54:26;;;;;;;7.90;5.47;;;8.80;99.90;;;;;;5072540;28;20555;-75
2022/11/13 10:57:00;;;;;;;9.90;6.00;;;8.80;99.90;;;;;;5072473;28;20121;-74
2022/11/13 10:59:40;;;;;;;9.75;6.30;;;8.80;99.90;;;;;;5072150;28;20049;-76
2022/11/13 11:02:18;;;;;;;9.35;5.65;;;9.00;99.90;;;;;;5071955;28;20061;-76
2022/11/13 11:04:44;;;;;;;9.50;6.10;;;9.40;99.90;;;;;;5072166;28;20045;-77
2022/11/13 11:07:18;;;;;;;12.27;7.28;;;9.30;99.90;;;;;;5072061;28;20037;-77
2022/11/13 11:09:46;;;;;;;10.90;7.13;;;9.20;99.90;;;;;;5072112;28;20127;-77
2022/11/13 11:12:22;;;;;;;11.85;7.18;;;9.20;99.90;;;;;;5071946;28;20051;-78
2022/11/13 11:14:58;;;;;;;13.18;8.05;;;9.20;99.90;;;;;;5072678;28;20166;-75
2022/11/13 11:17:43;;;;;;;15.73;8.73;;;9.30;99.90;;;;;;5072374;28;20036;-74
2022/11/13 11:20:38;;;;;;;18.85;10.02;;;9.30;99.90;;;;;;5087786;28;20048;-75
2022/11/13 11:23:38;;;;;;;17.73;10.15;;;9.30;99.90;;;;;;5071548;28;20045;-75
2022/11/13 11:26:12;;;;;;;20.95;11.15;;;9.40;99.90;;;;;;5052064;28;20113;-74
2022/11/13 11:29:00;;;;;;;33.50;16.63;;;9.40;99.90;;;;;;5052211;28;20044;-74
2022/11/13 11:31:37;;;;;;;22.70;12.38;;;9.40;99.90;;;;;;5053565;28;20040;-74
2022/11/13 11:34:21;;;;;;;22.83;12.07;;;9.40;99.90;;;;;;5053264;28;20037;-73
2022/11/13 11:37:27;;;;;;;26.90;14.55;;;9.90;99.90;;;;;;5082692;28;20045;-75
2022/11/13 11:40:06;;;;;;;24.80;14.63;;;10.20;99.90;;;;;;5051189;28;20048;-71
2022/11/13 11:42:58;;;;;;;27.20;14.30;;;9.80;99.90;;;;;;5050776;28;20040;-75
2022/11/13 11:45:46;;;;;;;22.25;12.60;;;9.70;99.90;;;;;;5049941;28;20039;-74
2022/11/13 11:48:37;;;;;;;25.98;13.43;;;9.50;99.90;;;;;;5051809;28;20051;-74
2022/11/13 11:51:20;;;;;;;25.27;13.65;;;9.60;99.90;;;;;;5053598;28;20420;-76
2022/11/13 11:54:03;;;;;;;20.67;12.50;;;9.60;99.90;;;;;;5051303;28;20394;-76
2022/11/13 11:57:07;;;;;;;22.45;12.93;;;9.60;99.90;;;;;;5051870;28;20048;-76
2022/11/13 12:00:20;;;;;;;29.17;16.25;;;9.60;99.90;;;;;;5047977;28;20527;-74
2022/11/13 12:03:18;;;;;;;24.38;12.85;;;9.60;99.90;;;;;;5056318;28;20434;-72
2022/11/13 12:06:23;;;;;;;27.73;14.60;;;9.50;99.90;;;;;;5059567;28;20100;-76
2022/11/13 12:09:07;;;;;;;29.45;14.32;;;9.50;99.90;;;;;;5030138;28;20555;-77
2022/11/13 12:11:38;;;;;;;22.52;12.50;;;9.60;99.90;;;;;;5045256;28;20052;-76
2022/11/13 12:14:29;;;;;;;24.98;13.38;;;9.70;99.90;;;;;;5066004;28;20110;-76
2022/11/13 12:17:44;;;;;;;27.10;14.20;;;9.80;99.90;;;;;;5106502;28;20039;-75
2022/11/13 12:21:05;;;;;;;29.58;15.05;;;9.70;99.90;;;;;;5089298;28;20059;-74
2022/11/13 12:23:52;;;;;;;31.20;15.20;;;9.50;99.90;;;;;;5060165;28;20036;-75
2022/11/13 12:26:30;;;;;;;36.13;16.27;;;9.40;99.90;;;;;;5092017;28;20039;-75
2022/11/13 12:29:06;;;;;;;32.40;16.35;;;9.30;99.90;;;;;;5092259;28;20130;-75
2022/11/13 12:31:51;;;;;;;35.20;17.23;;;9.20;99.90;;;;;;5091443;28;20028;-75
2022/11/13 12:34:54;;;;;;;36.25;17.95;;;9.20;99.90;;;;;;5092933;28;20522;-75
2022/11/13 12:37:46;;;;;;;38.97;18.23;;;9.20;99.90;;;;;;5091916;28;20035;-75
2022/11/13 12:40:31;;;;;;;43.85;19.98;;;9.20;99.90;;;;;;5069459;28;20385;-75
2022/11/13 12:43:16;;;;;;;38.38;19.25;;;9.20;99.90;;;;;;5086730;28;20166;-75
2022/11/13 12:45:53;;;;;;;47.00;20.45;;;9.00;99.90;;;;;;5086946;28;20403;-75
2022/11/13 12:48:31;;;;;;;36.50;17.70;;;9.10;99.90;;;;;;5071703;28;20484;-75
2022/11/13 12:51:03;;;;;;;44.95;18.23;;;9.10;99.90;;;;;;5086626;28;20037;-75
2022/11/13 12:53:43;;;;;;;41.75;18.05;;;9.10;99.90;;;;;;5070652;28;20072;-75
2022/11/13 12:56:18;;;;;;;34.78;18.15;;;9.10;99.90;;;;;;5072859;28;20066;-75
2022/11/13 12:59:02;;;;;;;38.55;19.15;;;9.20;99.90;;;;;;5076822;28;20048;-75
2022/11/13 13:01:42;;;;;;;37.83;17.85;;;9.20;99.90;;;;;;5074826;28;20049;-75
2022/11/13 13:04:12;;;;;;;43.60;18.10;;;9.20;99.90;;;;;;5075161;28;20403;-75
2022/11/13 13:06:45;;;;;;;36.45;17.73;;;9.20;99.90;;;;;;5076106;28;20040;-75
2022/11/13 13:09:18;;;;;;;59.85;28.27;;;9.30;99.90;;;;;;5076624;28;20032;-76
2022/11/13 13:12:06;;;;;;;45.67;21.80;;;9.30;99.90;;;;;;5076592;28;20097;-76
2022/11/13 13:15:07;;;;;;;40.95;20.67;;;9.30;99.90;;;;;;5075726;28;20036;-75
2022/11/13 13:17:36;;;;;;;39.83;20.77;;;9.40;99.90;;;;;;5071592;28;20044;-75